Bellemont, AZ (86015)

3:41 AM MST on August 24, 2016 (GMT -0700)
Bellemont, AZ | | Change Station

Elev 7165 ft 35.23 °N, 111.81 °W | Updated 3 seconds ago

Overcast
Overcast
46.8 °F
Feels Like 47 °F
N
0.0
Wind Variable Wind from SSW
Gusts 0.0 mph

Today
High -- | Low -- °F
--% Chance of Precip.
Yesterday
High -- | Low -- °F
Precip. -- in
Pressure 30.12 in
Visibility 10.0 miles
Clouds Overcast 9500 ft
Windchill 47 °F
Dew Point 45 °F
Humidity 95%
Rainfall 0.00 in
Snow Depth Not available.
5:54 AM 7:04 PM
Waning Gibbous, 58% visible
METAR KFLG 240957Z AUTO 00000KT 10SM OVC095 09/08 A3034 RMK AO2 SLP199 T00890083 TSNO
Pressure 30.12 in
Visibility 10.0 miles
Clouds Overcast 9500 ft
Windchill 47 °F
Dew Point 45 °F
Humidity 95%
Rainfall 0.00 in
Snow Depth Not available.
5:54 AM 7:04 PM
Waning Gibbous, 58% visible
METAR KFLG 240957Z AUTO 00000KT 10SM OVC095 09/08 A3034 RMK AO2 SLP199 T00890083 TSNO

10-Day Weather Forecast

Almanac

Astronomy

Aug. 24, 2016 Rise Set
Actual Time
Civil Twilight
Nautical Twilight
Astronomical Twilight
Moon
Length of Visible Light
Length of Day
Tomorrow will be .
, % of the Moon is Illuminated

Today's Extremes

State Highs State Lows

Community

WunderPhotos

Upload Photos

1,934,562 photos uploaded!

WunderBlog® & News

Nearby

Air Quality

  Air Quality AQ Index Pollutant
Not available.

Snow Depth

Station Depth Elevation

Earthquake Activity

City Distance Mag. Time & Date
Minimum magnitude displayed is 2.5.

Coastal Water Temperatures

Place Temperature

Stations

Nearby Weather Stations

Station Location Temp. Windchill Dew Point Humidity Wind Precip. Elev Updated Type
                   

Watches & Warnings

There are currently no watches in effect.